Terminal Aerodrome Forecast
Issued by NWS

Home | Current Version | Previous Version | Graphics & Text | Print | Product List | Glossary On
Versions: 1 2 3 4 5 6 7 8 9 10 11 12 13 14 15 16 17 18
000
FTUS45 KGGW 201728
TAFGDV
TAF
KGDV 201728Z 2018/2118 28012KT P6SM SKC
     FM202200 20012KT P6SM SCT140
     FM211100 23009KT P6SM SCT140=

USA.gov is the U.S. government's official web portal to all federal, state and local government web resources and services.